createdAt,value
2022-12-24T00:01:21.788Z,80.70
2022-12-24T00:03:49.952Z,80.50
2022-12-24T00:06:21.095Z,80.60
2022-12-24T00:08:48.514Z,80.40
2022-12-24T00:11:16.131Z,80.30
2022-12-24T00:13:43.705Z,80.10
2022-12-24T00:16:11.717Z,80.20
2022-12-24T00:18:45.562Z,79.80
2022-12-24T00:21:15.691Z,79.90
2022-12-24T00:23:44.005Z,79.90
2022-12-24T00:26:12.492Z,79.70
2022-12-24T00:28:40.510Z,80.40
2022-12-24T00:31:10.623Z,79.70
2022-12-24T00:33:38.140Z,79.60
2022-12-24T00:36:06.645Z,79.70
2022-12-24T00:38:34.040Z,79.60
2022-12-24T00:41:03.319Z,79.50
2022-12-24T00:43:31.793Z,79.50
2022-12-24T00:46:00.260Z,79.30
2022-12-24T00:48:27.703Z,79.60
2022-12-24T00:50:55.453Z,79.60
2022-12-24T00:53:22.936Z,79.40
2022-12-24T00:55:50.565Z,79.40
2022-12-24T00:58:17.905Z,79.40
2022-12-24T01:00:45.337Z,79.30
2022-12-24T01:03:13.132Z,79.30
2022-12-24T01:05:40.550Z,79.30
2022-12-24T01:08:08.180Z,79.20
2022-12-24T01:10:35.671Z,79.10
2022-12-24T01:13:03.675Z,79.20
2022-12-24T01:15:31.051Z,79.30
2022-12-24T01:17:58.984Z,79.10
2022-12-24T01:20:31.389Z,79.10
2022-12-24T01:22:58.909Z,78.80
2022-12-24T01:25:26.246Z,78.90
2022-12-24T01:27:53.515Z,79.00
2022-12-24T01:30:20.879Z,79.00
2022-12-24T01:32:48.287Z,79.00
2022-12-24T01:35:15.548Z,78.90
2022-12-24T01:37:43.267Z,78.90
2022-12-24T01:40:34.346Z,78.60
2022-12-24T01:43:20.292Z,78.30
2022-12-24T01:45:54.976Z,78.50
2022-12-24T01:48:44.667Z,78.40
2022-12-24T01:51:38.510Z,78.50
2022-12-24T01:54:15.354Z,78.40
2022-12-24T01:56:46.706Z,78.30
2022-12-24T01:59:18.182Z,78.20
2022-12-24T02:01:51.130Z,78.00
2022-12-24T02:04:45.552Z,78.10
2022-12-24T02:07:13.156Z,77.90
2022-12-24T02:09:40.575Z,78.10
2022-12-24T02:12:08.472Z,78.10
2022-12-24T02:14:37.245Z,78.20
2022-12-24T02:17:16.830Z,78.00
2022-12-24T02:20:02.300Z,77.90
2022-12-24T02:23:02.733Z,77.80
2022-12-24T02:25:45.419Z,77.80
2022-12-24T02:28:51.087Z,77.50
2022-12-24T02:31:27.761Z,77.50
2022-12-24T02:34:03.033Z,77.40
2022-12-24T02:36:36.625Z,77.40
2022-12-24T02:39:16.698Z,77.40
2022-12-24T02:42:05.726Z,77.10
2022-12-24T02:44:55.642Z,77.20
2022-12-24T02:47:26.157Z,76.90
2022-12-24T02:49:54.125Z,77.20
2022-12-24T02:52:33.207Z,77.10
2022-12-24T02:55:06.175Z,77.30
2022-12-24T02:57:54.573Z,77.60
2022-12-24T03:00:23.875Z,77.50
2022-12-24T03:03:09.786Z,77.60
2022-12-24T03:06:03.116Z,77.90
2022-12-24T03:08:54.548Z,77.80
2022-12-24T03:11:22.365Z,77.90
2022-12-24T03:13:52.827Z,78.20
2022-12-24T03:16:24.552Z,78.30
2022-12-24T03:18:54.374Z,78.20
2022-12-24T03:21:32.211Z,78.30
2022-12-24T03:24:00.046Z,78.30
2022-12-24T03:26:29.718Z,78.30
2022-12-24T03:28:56.967Z,78.20
2022-12-24T03:31:24.912Z,78.20
2022-12-24T03:33:52.199Z,78.20
2022-12-24T03:36:19.414Z,77.90
2022-12-24T03:38:46.617Z,78.10
2022-12-24T03:41:13.838Z,77.70
2022-12-24T03:43:41.092Z,77.90
2022-12-24T03:46:09.055Z,77.80
2022-12-24T03:48:36.926Z,77.90
2022-12-24T03:51:05.118Z,78.00
2022-12-24T03:53:32.598Z,77.80
2022-12-24T03:56:00.029Z,77.70
2022-12-24T03:58:27.473Z,77.60
2022-12-24T04:00:54.857Z,77.50
2022-12-24T04:03:22.217Z,77.00
2022-12-24T04:06:04.183Z,77.00
2022-12-24T04:08:31.502Z,76.80
2022-12-24T04:11:01.356Z,77.00
2022-12-24T04:13:32.197Z,76.30
2022-12-24T04:16:01.615Z,76.40
2022-12-24T04:18:29.412Z,76.40
2022-12-24T04:20:57.753Z,76.20
2022-12-24T04:23:25.432Z,76.20
2022-12-24T04:25:52.837Z,75.80
2022-12-24T04:28:20.361Z,75.90
2022-12-24T04:30:47.873Z,75.80
2022-12-24T04:33:15.290Z,75.90
2022-12-24T04:35:42.873Z,75.90
2022-12-24T04:38:10.295Z,75.80
2022-12-24T04:40:37.648Z,75.60
2022-12-24T04:43:05.112Z,75.90
2022-12-24T04:45:33.073Z,75.70
2022-12-24T04:48:00.546Z,75.50
2022-12-24T04:50:27.920Z,75.60
2022-12-24T04:52:55.341Z,75.50
2022-12-24T04:55:23.112Z,75.40
2022-12-24T04:57:53.077Z,75.20
2022-12-24T05:00:21.040Z,75.30
2022-12-24T05:02:48.490Z,75.30
2022-12-24T05:05:15.976Z,75.50
2022-12-24T05:07:43.193Z,75.60
2022-12-24T05:10:11.143Z,75.70
2022-12-24T05:12:38.455Z,75.60
2022-12-24T05:15:06.185Z,75.60
2022-12-24T05:17:33.576Z,75.50
2022-12-24T05:20:00.929Z,75.70
2022-12-24T05:22:46.989Z,75.70
2022-12-24T05:25:32.909Z,75.60
2022-12-24T05:28:00.363Z,75.60
2022-12-24T05:30:27.834Z,75.50
2022-12-24T05:32:55.191Z,75.60
2022-12-24T05:35:22.739Z,75.50
2022-12-24T05:37:50.215Z,75.60
2022-12-24T05:40:17.540Z,75.60
2022-12-24T05:42:44.899Z,75.70
2022-12-24T05:45:12.189Z,75.80
2022-12-24T05:47:43.225Z,75.60
2022-12-24T05:50:12.113Z,75.70
2022-12-24T05:52:40.742Z,75.80
2022-12-24T05:55:09.077Z,75.80
2022-12-24T05:57:36.709Z,75.80
2022-12-24T06:00:04.476Z,75.80
2022-12-24T06:02:39.650Z,75.90
2022-12-24T06:05:07.271Z,75.90
2022-12-24T06:07:35.127Z,75.80
2022-12-24T06:10:02.413Z,75.90
2022-12-24T06:12:29.762Z,76.10
2022-12-24T06:14:57.008Z,76.00
2022-12-24T06:17:24.255Z,76.00
2022-12-24T06:19:51.457Z,76.00
2022-12-24T06:22:18.782Z,75.90
2022-12-24T06:24:46.030Z,75.80
2022-12-24T06:27:13.358Z,75.70
2022-12-24T06:29:40.575Z,75.60
2022-12-24T06:32:07.990Z,75.60
2022-12-24T06:34:35.784Z,75.70
2022-12-24T06:37:03.103Z,75.60
2022-12-24T06:39:30.445Z,75.70
2022-12-24T06:41:57.917Z,75.70
2022-12-24T06:44:25.244Z,75.80
2022-12-24T06:46:52.719Z,75.70
2022-12-24T06:49:20.199Z,75.60
2022-12-24T06:51:47.501Z,75.70
2022-12-24T06:54:14.779Z,75.70
2022-12-24T06:56:41.958Z,75.70
2022-12-24T06:59:09.181Z,75.80
2022-12-24T07:01:36.493Z,76.00
2022-12-24T07:04:04.043Z,76.10
2022-12-24T07:06:32.712Z,76.30
2022-12-24T07:09:00.056Z,76.30
2022-12-24T07:11:27.556Z,76.40
2022-12-24T07:13:54.998Z,76.40
2022-12-24T07:16:22.659Z,76.70
2022-12-24T07:18:50.207Z,76.90
2022-12-24T07:21:17.688Z,77.00
2022-12-24T07:23:45.037Z,77.10
2022-12-24T07:26:12.487Z,77.20
2022-12-24T07:28:39.951Z,78.00
2022-12-24T07:31:07.400Z,77.30
2022-12-24T07:33:34.875Z,77.30
2022-12-24T07:36:05.115Z,77.50
2022-12-24T07:38:33.433Z,77.40
2022-12-24T07:41:01.028Z,77.40
2022-12-24T07:43:28.912Z,77.40
2022-12-24T07:45:58.309Z,77.40
2022-12-24T07:48:27.987Z,77.40
2022-12-24T07:50:56.376Z,77.30
2022-12-24T07:53:24.829Z,77.30
2022-12-24T07:55:52.836Z,77.30
2022-12-24T07:58:20.752Z,77.30
2022-12-24T08:00:48.336Z,77.20
2022-12-24T08:03:19.396Z,77.20
2022-12-24T08:05:48.196Z,77.10
2022-12-24T08:08:15.953Z,77.10
2022-12-24T08:10:45.464Z,77.20
2022-12-24T08:13:13.851Z,77.20
2022-12-24T08:15:41.662Z,77.30
2022-12-24T08:18:09.265Z,77.30
2022-12-24T08:20:39.858Z,77.20
2022-12-24T08:23:08.601Z,77.20
2022-12-24T08:25:36.553Z,77.20
2022-12-24T08:28:05.341Z,77.20
2022-12-24T08:30:33.351Z,77.00
2022-12-24T08:33:00.830Z,76.90
2022-12-24T08:35:29.448Z,76.90
2022-12-24T08:37:57.021Z,76.90
2022-12-24T08:40:24.748Z,77.00
2022-12-24T08:42:52.409Z,77.20
2022-12-24T08:45:19.902Z,77.10
2022-12-24T08:47:47.505Z,77.00
2022-12-24T08:50:15.126Z,77.00
2022-12-24T08:52:42.780Z,77.00
2022-12-24T08:55:10.184Z,76.90
2022-12-24T08:57:38.082Z,76.70
2022-12-24T09:00:07.168Z,76.70
2022-12-24T09:02:34.919Z,76.50
2022-12-24T09:05:02.611Z,76.60
2022-12-24T09:07:30.414Z,76.60
2022-12-24T09:09:57.800Z,76.60
2022-12-24T09:12:25.200Z,76.50
2022-12-24T09:14:59.531Z,76.60
2022-12-24T09:17:29.084Z,76.70
2022-12-24T09:19:56.755Z,76.70
2022-12-24T09:22:24.389Z,76.70
2022-12-24T09:24:54.073Z,76.80
2022-12-24T09:27:21.588Z,76.80
2022-12-24T09:29:48.935Z,76.90
2022-12-24T09:32:16.442Z,76.90
2022-12-24T09:34:43.877Z,76.90
2022-12-24T09:37:11.270Z,77.10
2022-12-24T09:39:38.536Z,77.10
2022-12-24T09:42:44.455Z,77.30
2022-12-24T09:45:37.929Z,77.40
2022-12-24T09:48:19.980Z,77.50
2022-12-24T09:50:54.686Z,77.60
2022-12-24T09:53:34.738Z,77.70
2022-12-24T09:56:06.570Z,77.80
2022-12-24T09:58:58.496Z,77.80
2022-12-24T10:01:29.121Z,77.90
2022-12-24T10:04:18.568Z,77.90
2022-12-24T10:06:54.593Z,77.90
2022-12-24T10:09:43.157Z,78.00
2022-12-24T10:12:23.116Z,78.40
2022-12-24T10:15:13.697Z,78.30
2022-12-24T10:18:05.808Z,78.10
2022-12-24T10:20:47.456Z,77.70
2022-12-24T10:23:28.897Z,77.90
2022-12-24T10:26:18.106Z,77.90
2022-12-24T10:29:06.630Z,78.00
2022-12-24T10:31:36.533Z,78.10
2022-12-24T10:34:13.973Z,78.20
2022-12-24T10:36:41.610Z,78.40
2022-12-24T10:39:19.323Z,78.50
2022-12-24T10:41:49.036Z,78.70
2022-12-24T10:44:20.845Z,78.70
2022-12-24T10:46:48.418Z,78.80
2022-12-24T10:49:39.622Z,79.00
2022-12-24T10:52:15.059Z,79.40
2022-12-24T10:55:07.817Z,79.30
2022-12-24T10:57:35.850Z,79.50
2022-12-24T11:00:04.178Z,79.40
2022-12-24T11:02:32.955Z,79.50
2022-12-24T11:05:02.434Z,79.50
2022-12-24T11:07:31.299Z,79.60
2022-12-24T11:10:01.061Z,80.30
2022-12-24T11:13:00.289Z,79.60
2022-12-24T11:15:34.794Z,79.60
2022-12-24T11:18:13.554Z,79.40
2022-12-24T11:20:49.039Z,79.50
2022-12-24T11:23:17.679Z,79.60
2022-12-24T11:25:50.818Z,79.80
2022-12-24T11:28:30.433Z,80.00
2022-12-24T11:31:00.703Z,80.10
2022-12-24T11:33:29.996Z,80.00
2022-12-24T11:36:06.674Z,80.10
2022-12-24T11:38:36.182Z,80.40
2022-12-24T11:41:11.395Z,80.70
2022-12-24T11:43:46.265Z,80.80
2022-12-24T11:46:17.863Z,80.80
2022-12-24T11:48:46.396Z,80.90
2022-12-24T11:51:43.457Z,80.90
2022-12-24T11:54:19.643Z,81.00
2022-12-24T11:57:00.180Z,81.00
2022-12-24T11:59:40.727Z,81.00
2022-12-24T12:02:36.493Z,80.90
2022-12-24T12:05:19.504Z,80.90
2022-12-24T12:07:51.803Z,81.00
2022-12-24T12:10:30.217Z,80.90
2022-12-24T12:13:07.370Z,80.80
2022-12-24T12:15:48.992Z,80.70
2022-12-24T12:18:21.836Z,80.50
2022-12-24T12:20:54.060Z,80.20
2022-12-24T12:23:35.017Z,79.70
2022-12-24T12:26:12.059Z,79.20
2022-12-24T12:28:57.765Z,78.80
2022-12-24T12:31:37.038Z,78.70
2022-12-24T12:34:10.392Z,78.50
2022-12-24T12:36:48.704Z,78.50
2022-12-24T12:39:16.196Z,78.70
2022-12-24T12:41:46.466Z,78.80
2022-12-24T12:44:20.113Z,78.80
2022-12-24T12:47:15.282Z,79.00
2022-12-24T12:50:01.461Z,79.30
2022-12-24T12:52:50.850Z,79.30
2022-12-24T12:56:02.648Z,79.50
2022-12-24T12:59:00.446Z,79.60
2022-12-24T13:01:53.239Z,79.50
2022-12-24T13:04:32.881Z,79.30
2022-12-24T13:07:38.351Z,79.30
2022-12-24T13:10:33.881Z,79.30
2022-12-24T13:13:32.342Z,79.90
2022-12-24T13:16:19.386Z,79.00
2022-12-24T13:19:18.633Z,79.00
2022-12-24T13:21:48.871Z,79.00
2022-12-24T13:24:25.895Z,79.00
2022-12-24T13:27:07.036Z,78.90
2022-12-24T13:29:53.871Z,78.70
2022-12-24T13:32:22.046Z,78.80
2022-12-24T13:34:57.868Z,78.90
2022-12-24T13:37:31.378Z,78.70
2022-12-24T13:40:03.256Z,78.90
2022-12-24T13:42:50.870Z,78.90
2022-12-24T13:45:30.672Z,78.60
2022-12-24T13:48:06.920Z,78.60
2022-12-24T13:51:03.187Z,78.30
2022-12-24T13:53:45.805Z,78.40
2022-12-24T13:56:16.569Z,78.50
2022-12-24T13:58:51.318Z,78.60
2022-12-24T14:01:32.641Z,78.70
2022-12-24T14:04:03.829Z,78.90
2022-12-24T14:06:42.309Z,79.10
2022-12-24T14:09:16.563Z,79.10
2022-12-24T14:12:16.610Z,79.10
2022-12-24T14:14:44.771Z,79.30
2022-12-24T14:17:21.899Z,79.20
2022-12-24T14:19:58.442Z,79.10
2022-12-24T14:22:36.992Z,79.10
2022-12-24T14:25:09.747Z,79.10
2022-12-24T14:27:46.287Z,79.10
2022-12-24T14:30:23.377Z,79.30
2022-12-24T14:32:51.934Z,79.30
2022-12-24T14:35:21.532Z,79.30
2022-12-24T14:38:04.381Z,79.40
2022-12-24T14:40:37.220Z,79.50
2022-12-24T14:43:14.100Z,79.70
2022-12-24T14:45:54.605Z,79.70
2022-12-24T14:48:45.559Z,79.90
2022-12-24T14:51:19.112Z,80.00
2022-12-24T14:54:16.910Z,80.00
2022-12-24T14:56:44.377Z,80.20
2022-12-24T14:59:18.100Z,80.00
2022-12-24T15:01:46.469Z,80.20
2022-12-24T15:04:17.940Z,80.20
2022-12-24T15:06:53.156Z,80.40
2022-12-24T15:09:21.942Z,80.30
2022-12-24T15:11:52.390Z,80.30
2022-12-24T15:14:22.455Z,80.20
2022-12-24T15:16:58.129Z,80.30
2022-12-24T15:19:34.278Z,80.40
2022-12-24T15:22:04.005Z,80.50
2022-12-24T15:24:34.417Z,80.60
2022-12-24T15:27:13.142Z,80.70
2022-12-24T15:29:44.836Z,80.70
2022-12-24T15:32:14.779Z,80.80
2022-12-24T15:34:45.181Z,80.70
2022-12-24T15:37:27.611Z,80.60
2022-12-24T15:40:05.928Z,80.40
2022-12-24T15:42:33.877Z,80.00
2022-12-24T15:45:07.497Z,80.00
2022-12-24T15:47:44.174Z,80.30
2022-12-24T15:50:32.021Z,80.50
2022-12-24T15:53:20.537Z,80.90
2022-12-24T15:56:09.714Z,81.10
2022-12-24T15:58:43.339Z,81.00
2022-12-24T16:01:14.131Z,80.80
2022-12-24T16:03:55.701Z,80.20
2022-12-24T16:06:23.765Z,80.80
2022-12-24T16:08:51.935Z,80.70
2022-12-24T16:11:25.438Z,80.50
2022-12-24T16:14:04.226Z,80.60
2022-12-24T16:16:38.536Z,80.40
2022-12-24T16:19:08.361Z,80.30
2022-12-24T16:21:37.333Z,80.30
2022-12-24T16:24:15.633Z,80.40
2022-12-24T16:26:42.926Z,80.50
2022-12-24T16:29:12.184Z,80.70
2022-12-24T16:31:45.226Z,80.90
2022-12-24T16:34:15.050Z,81.30
2022-12-24T16:36:43.742Z,81.50
2022-12-24T16:39:41.576Z,81.60
2022-12-24T16:42:27.675Z,81.70
2022-12-24T16:44:55.467Z,81.80
2022-12-24T16:47:35.723Z,81.80
2022-12-24T16:50:08.746Z,81.60
2022-12-24T16:52:35.940Z,81.20
2022-12-24T16:55:04.600Z,81.00
2022-12-24T16:57:33.694Z,80.80
2022-12-24T17:00:04.161Z,80.60
2022-12-24T17:02:31.674Z,80.40
2022-12-24T17:04:59.024Z,80.30
2022-12-24T17:07:26.492Z,80.40
2022-12-24T17:09:53.790Z,80.50
2022-12-24T17:12:21.701Z,80.60
2022-12-24T17:14:49.030Z,80.60
2022-12-24T17:17:28.429Z,80.40
2022-12-24T17:19:56.923Z,80.30
2022-12-24T17:22:27.146Z,80.20
2022-12-24T17:24:55.364Z,80.00
2022-12-24T17:27:23.141Z,80.10
2022-12-24T17:29:50.776Z,80.20
2022-12-24T17:32:18.145Z,80.10
2022-12-24T17:34:45.385Z,80.00
2022-12-24T17:37:12.834Z,80.00
2022-12-24T17:39:40.207Z,79.80
2022-12-24T17:42:07.608Z,79.60
2022-12-24T17:44:35.155Z,79.40
2022-12-24T17:47:05.001Z,79.40
2022-12-24T17:49:32.626Z,79.40
2022-12-24T17:52:00.116Z,79.60
2022-12-24T17:54:27.432Z,79.70
2022-12-24T17:56:54.846Z,79.90
2022-12-24T17:59:22.970Z,80.00
2022-12-24T18:01:50.519Z,80.30
2022-12-24T18:04:17.973Z,81.00
2022-12-24T18:06:49.302Z,81.40
2022-12-24T18:09:17.620Z,81.50
2022-12-24T18:11:45.021Z,81.60
2022-12-24T18:14:14.051Z,81.60
2022-12-24T18:16:42.598Z,81.60
2022-12-24T18:19:12.442Z,81.70
2022-12-24T18:21:40.835Z,81.70
2022-12-24T18:24:09.142Z,82.10
2022-12-24T18:26:36.589Z,82.40
2022-12-24T18:29:04.821Z,82.30
2022-12-24T18:31:33.990Z,82.30
2022-12-24T18:34:04.418Z,82.10
2022-12-24T18:36:32.404Z,81.80
2022-12-24T18:39:00.436Z,81.70
2022-12-24T18:41:30.147Z,82.00
2022-12-24T18:43:59.636Z,82.60
2022-12-24T18:46:32.448Z,83.10
2022-12-24T18:49:00.768Z,83.60
2022-12-24T18:51:32.216Z,83.90
2022-12-24T18:53:59.604Z,83.90
2022-12-24T18:56:27.528Z,83.90
2022-12-24T18:58:57.336Z,83.60
2022-12-24T19:01:27.958Z,83.60
2022-12-24T19:03:55.766Z,83.40
2022-12-24T19:06:23.686Z,82.90
2022-12-24T19:09:00.870Z,82.40
2022-12-24T19:11:30.895Z,82.20
2022-12-24T19:13:59.223Z,81.90
2022-12-24T19:16:27.435Z,81.90
2022-12-24T19:18:55.104Z,81.90
2022-12-24T19:21:23.175Z,82.00
2022-12-24T19:23:51.711Z,82.70
2022-12-24T19:26:20.362Z,82.30
2022-12-24T19:28:48.066Z,81.70
2022-12-24T19:31:19.121Z,81.80
2022-12-24T19:33:49.503Z,82.00
2022-12-24T19:36:20.389Z,82.10
2022-12-24T19:38:47.871Z,82.20
2022-12-24T19:41:21.925Z,82.50
2022-12-24T19:43:52.143Z,82.60
2022-12-24T19:46:22.137Z,82.80
2022-12-24T19:48:54.741Z,83.00
2022-12-24T19:51:23.537Z,83.20
2022-12-24T19:53:52.356Z,84.00
2022-12-24T19:56:21.395Z,84.40
2022-12-24T19:58:49.252Z,84.70
2022-12-24T20:01:21.972Z,84.90
2022-12-24T20:03:51.347Z,85.10
2022-12-24T20:06:21.647Z,84.30
2022-12-24T20:08:49.564Z,84.70
2022-12-24T20:11:19.714Z,84.40
2022-12-24T20:13:47.073Z,84.10
2022-12-24T20:16:20.136Z,83.80
2022-12-24T20:18:52.816Z,83.40
2022-12-24T20:21:20.841Z,83.50
2022-12-24T20:23:49.010Z,83.60
2022-12-24T20:26:17.957Z,83.50
2022-12-24T20:28:45.491Z,83.30
2022-12-24T20:31:19.303Z,83.20
2022-12-24T20:33:47.450Z,83.10
2022-12-24T20:36:17.200Z,83.00
2022-12-24T20:38:45.753Z,82.90
2022-12-24T20:41:14.805Z,82.80
2022-12-24T20:43:47.856Z,82.70
2022-12-24T20:46:17.901Z,82.60
2022-12-24T20:48:45.488Z,82.70
2022-12-24T20:51:22.733Z,82.90
2022-12-24T20:53:53.976Z,83.00
2022-12-24T20:56:21.879Z,82.90
2022-12-24T20:58:49.314Z,82.90
2022-12-24T21:01:24.282Z,83.00
2022-12-24T21:03:53.739Z,82.90
2022-12-24T21:06:23.459Z,82.80
2022-12-24T21:08:52.372Z,82.70
2022-12-24T21:11:39.245Z,82.60
2022-12-24T21:14:07.074Z,82.60
2022-12-24T21:16:35.519Z,82.60
2022-12-24T21:19:03.383Z,82.70
2022-12-24T21:21:31.073Z,82.70
2022-12-24T21:23:58.776Z,82.60
2022-12-24T21:26:26.375Z,82.70
2022-12-24T21:28:54.623Z,82.70
2022-12-24T21:31:22.398Z,82.70
2022-12-24T21:33:49.815Z,82.70
2022-12-24T21:36:17.732Z,82.60
2022-12-24T21:38:45.174Z,82.70
2022-12-24T21:41:15.603Z,83.00
2022-12-24T21:43:43.138Z,83.30
2022-12-24T21:46:19.269Z,83.60
2022-12-24T21:49:05.676Z,83.50
2022-12-24T21:51:33.228Z,83.30
2022-12-24T21:54:19.325Z,82.90
2022-12-24T21:57:05.578Z,82.90
2022-12-24T21:59:33.031Z,83.00
2022-12-24T22:02:00.752Z,83.10
2022-12-24T22:04:28.442Z,83.20
2022-12-24T22:07:14.485Z,83.30
2022-12-24T22:10:00.458Z,83.30
2022-12-24T22:12:31.667Z,83.30
2022-12-24T22:14:59.545Z,83.30
2022-12-24T22:17:28.165Z,83.10
2022-12-24T22:19:55.472Z,83.10
2022-12-24T22:22:23.454Z,83.00
2022-12-24T22:24:50.973Z,82.90
2022-12-24T22:27:18.729Z,82.90
2022-12-24T22:29:46.606Z,82.80
2022-12-24T22:32:14.061Z,82.80
2022-12-24T22:34:41.370Z,82.70
2022-12-24T22:37:08.621Z,82.80
2022-12-24T22:39:35.935Z,82.80
2022-12-24T22:42:03.339Z,82.70
2022-12-24T22:44:30.608Z,82.60
2022-12-24T22:46:58.091Z,82.70
2022-12-24T22:49:25.547Z,82.70
2022-12-24T22:51:52.988Z,82.60
2022-12-24T22:54:20.412Z,82.40
2022-12-24T22:56:47.816Z,82.20
2022-12-24T22:59:15.484Z,82.40
2022-12-24T23:01:45.621Z,82.30
2022-12-24T23:04:13.749Z,82.20
2022-12-24T23:06:41.724Z,82.10
2022-12-24T23:09:11.406Z,82.10
2022-12-24T23:11:39.922Z,82.20
2022-12-24T23:14:36.754Z,82.40
2022-12-24T23:17:04.632Z,82.40
2022-12-24T23:19:33.424Z,82.40
2022-12-24T23:22:02.820Z,82.40
2022-12-24T23:24:30.776Z,82.50
2022-12-24T23:27:01.348Z,82.60
2022-12-24T23:29:30.694Z,82.70
2022-12-24T23:31:58.869Z,82.70
2022-12-24T23:34:26.630Z,82.90
2022-12-24T23:36:53.912Z,82.90
2022-12-24T23:39:21.252Z,82.90
2022-12-24T23:41:48.589Z,83.00
2022-12-24T23:44:15.800Z,83.00
2022-12-24T23:46:43.290Z,83.00
2022-12-24T23:49:15.104Z,83.10
2022-12-24T23:51:42.580Z,83.10
2022-12-24T23:54:09.883Z,83.00
2022-12-24T23:56:37.261Z,82.80
2022-12-24T23:59:04.607Z,82.50
